Time;durP1;ratioP1;P1;durP2;ratioP2;P2;SDS_P1;SDS_P2;PMS_P1;PMS_P2;Temp;Humidity;BMP_temperature;BMP_pressure;BME280_temperature;BME280_humidity;BME280_pressure;Samples;Min_cycle;Max_cycle;Signal;HPM_P1;HPM_P2
2021/09/13 00:00:22;;;;;;;1999.90;999.90;;;17.00;99.90;;;;;;5034470;28;20199;-67
2021/09/13 00:02:48;;;;;;;1999.90;999.90;;;17.00;99.90;;;;;;5034372;28;20171;-68
2021/09/13 00:05:13;;;;;;;1999.90;999.90;;;16.90;99.90;;;;;;5033423;28;20292;-68
2021/09/13 00:07:39;;;;;;;1999.90;999.90;;;16.80;99.90;;;;;;5034323;28;20175;-68
2021/09/13 00:10:06;;;;;;;1999.90;999.90;;;16.80;99.90;;;;;;5034270;28;20176;-67
2021/09/13 00:12:32;;;;;;;1999.90;999.90;;;16.80;99.90;;;;;;5034045;28;20236;-68
2021/09/13 00:14:58;;;;;;;1999.90;999.90;;;16.80;99.90;;;;;;5033714;28;20855;-68
2021/09/13 00:17:24;;;;;;;1999.90;999.90;;;16.70;99.90;;;;;;5034120;28;20207;-68
2021/09/13 00:19:49;;;;;;;1999.90;999.90;;;16.70;99.90;;;;;;5034091;28;20437;-68
2021/09/13 00:22:15;;;;;;;1999.90;999.90;;;16.70;99.90;;;;;;5034333;28;20666;-67
2021/09/13 00:24:41;;;;;;;1999.90;999.90;;;16.70;99.90;;;;;;5033534;28;20215;-68
2021/09/13 00:27:06;;;;;;;1999.90;999.90;;;16.60;99.90;;;;;;5033968;28;20179;-68
2021/09/13 00:29:32;;;;;;;1999.90;999.90;;;16.70;99.90;;;;;;5033877;28;20176;-68
2021/09/13 00:31:58;;;;;;;1999.90;999.90;;;16.70;99.90;;;;;;5033951;28;20282;-68
2021/09/13 00:34:23;;;;;;;1999.90;999.90;;;16.60;99.90;;;;;;5033504;28;20199;-67
2021/09/13 00:36:49;;;;;;;1999.90;999.90;;;16.50;99.90;;;;;;5033747;28;20505;-68
2021/09/13 00:39:14;;;;;;;1999.90;999.90;;;16.50;99.90;;;;;;5033821;28;20259;-68
2021/09/13 00:41:40;;;;;;;1999.90;999.90;;;16.40;99.90;;;;;;5033636;28;20712;-68
2021/09/13 00:44:06;;;;;;;1999.90;999.90;;;16.40;99.90;;;;;;5033209;28;20330;-68
2021/09/13 00:46:31;;;;;;;1999.90;999.90;;;16.40;99.90;;;;;;5033554;28;20174;-68
2021/09/13 00:48:57;;;;;;;1999.90;999.90;;;16.40;99.90;;;;;;5033788;28;20170;-68
2021/09/13 00:51:23;;;;;;;1999.90;999.90;;;16.30;99.90;;;;;;5033625;28;20197;-68
2021/09/13 00:53:49;;;;;;;1999.90;999.90;;;16.30;99.90;;;;;;5033365;28;20189;-68
2021/09/13 00:56:15;;;;;;;1999.90;999.90;;;16.40;99.90;;;;;;5033468;28;20463;-68
2021/09/13 00:58:41;;;;;;;1999.90;999.90;;;16.50;99.90;;;;;;5033432;28;20404;-68
2021/09/13 01:01:07;;;;;;;1999.90;999.90;;;16.50;99.90;;;;;;5033353;28;20422;-68
2021/09/13 01:03:33;;;;;;;1999.90;999.90;;;16.50;99.90;;;;;;5033208;28;20426;-68
2021/09/13 01:05:59;;;;;;;1999.90;999.90;;;16.60;99.90;;;;;;5032927;28;20177;-68
2021/09/13 01:08:25;;;;;;;1999.90;999.90;;;16.60;99.90;;;;;;5033195;28;20518;-68
2021/09/13 01:10:54;;;;;;;1999.90;999.90;;;16.60;99.90;;;;;;5032980;28;20458;-68
2021/09/13 01:13:19;;;;;;;1999.90;999.90;;;16.60;99.90;;;;;;5032896;28;20402;-68
2021/09/13 01:15:45;;;;;;;1999.90;999.90;;;16.60;99.90;;;;;;5032416;28;20923;-68
2021/09/13 01:18:11;;;;;;;1999.90;999.90;;;16.60;99.90;;;;;;5032581;28;20250;-68
2021/09/13 01:20:37;;;;;;;1999.90;999.90;;;16.60;99.90;;;;;;5032986;28;20641;-68
2021/09/13 01:23:09;;;;;;;1999.90;999.90;;;16.60;99.90;;;;;;5032897;28;20178;-67
2021/09/13 01:25:36;;;;;;;1999.90;999.90;;;16.70;99.90;;;;;;5032427;28;20406;-68
2021/09/13 01:28:01;;;;;;;1999.90;999.90;;;16.70;99.90;;;;;;5032751;28;20402;-68
2021/09/13 01:30:28;;;;;;;1999.90;999.90;;;16.70;99.90;;;;;;5032680;28;20403;-68
2021/09/13 01:32:54;;;;;;;1999.90;999.90;;;16.80;99.90;;;;;;5032673;28;20303;-68
2021/09/13 01:35:19;;;;;;;1999.90;999.90;;;16.80;99.90;;;;;;5014878;28;20521;-68
2021/09/13 01:37:45;;;;;;;1999.90;999.90;;;16.70;99.90;;;;;;5032645;28;20171;-69
2021/09/13 01:40:11;;;;;;;1999.90;999.90;;;16.70;99.90;;;;;;5032484;28;20164;-68
2021/09/13 01:42:36;;;;;;;1999.90;999.90;;;16.70;99.90;;;;;;5032541;28;20317;-67
2021/09/13 01:45:02;;;;;;;1999.90;999.90;;;16.60;99.90;;;;;;5032231;28;20517;-68
2021/09/13 01:47:29;;;;;;;1999.90;999.90;;;16.60;99.90;;;;;;5032653;28;20164;-68
2021/09/13 01:49:55;;;;;;;1999.90;999.90;;;16.60;99.90;;;;;;5032478;28;20794;-67
2021/09/13 01:52:20;;;;;;;1999.90;999.90;;;16.50;99.90;;;;;;5032331;28;20458;-68
2021/09/13 01:54:46;;;;;;;1999.90;999.90;;;16.50;99.90;;;;;;5031897;28;20622;-68
2021/09/13 01:57:11;;;;;;;1999.90;999.90;;;16.40;99.90;;;;;;5032482;28;20176;-68
2021/09/13 01:59:37;;;;;;;1999.90;999.90;;;16.40;99.90;;;;;;5032343;28;20166;-68
2021/09/13 02:02:02;;;;;;;1999.90;999.90;;;16.30;99.90;;;;;;5032359;28;20242;-68
2021/09/13 02:04:29;;;;;;;1999.90;999.90;;;16.30;99.90;;;;;;5031929;28;20631;-68
2021/09/13 02:06:55;;;;;;;1999.90;999.90;;;16.30;99.90;;;;;;5032402;28;20739;-68
2021/09/13 02:09:20;;;;;;;1999.90;999.90;;;16.20;99.90;;;;;;5032131;28;20407;-68
2021/09/13 02:11:46;;;;;;;1999.90;999.90;;;16.10;99.90;;;;;;5032453;28;20339;-68
2021/09/13 02:14:12;;;;;;;1999.90;999.90;;;16.00;99.90;;;;;;5032074;28;20188;-68
2021/09/13 02:16:37;;;;;;;1999.90;999.90;;;15.90;99.90;;;;;;5032286;28;20172;-68
2021/09/13 02:19:03;;;;;;;1999.90;999.90;;;15.80;99.90;;;;;;5032166;28;20165;-68
2021/09/13 02:21:28;;;;;;;1999.90;999.90;;;15.80;99.90;;;;;;5032156;28;20177;-68
2021/09/13 02:23:54;;;;;;;1999.90;999.90;;;15.80;99.90;;;;;;5031406;28;20255;-69
2021/09/13 02:26:20;;;;;;;1999.90;999.90;;;15.80;99.90;;;;;;5032218;28;20230;-68
2021/09/13 02:28:45;;;;;;;1999.90;999.90;;;15.70;99.90;;;;;;5034640;28;20570;-69
2021/09/13 02:31:11;;;;;;;1999.90;999.90;;;15.80;99.90;;;;;;5036160;28;20196;-68
2021/09/13 02:33:37;;;;;;;1999.90;999.90;;;15.80;99.90;;;;;;5036098;28;20198;-69
2021/09/13 02:36:03;;;;;;;1999.90;999.90;;;15.80;99.90;;;;;;5035966;28;20164;-68
2021/09/13 02:38:28;;;;;;;1999.90;999.90;;;15.80;99.90;;;;;;5035930;28;20646;-68
2021/09/13 02:40:54;;;;;;;1999.90;999.90;;;15.80;99.90;;;;;;5036068;28;20429;-68
2021/09/13 02:43:19;;;;;;;1999.90;999.90;;;15.80;99.90;;;;;;5036014;28;20723;-68
2021/09/13 02:45:45;;;;;;;1999.90;999.90;;;15.70;99.90;;;;;;5035523;28;20176;-68
2021/09/13 02:48:11;;;;;;;1999.90;999.90;;;15.60;99.90;;;;;;5035829;28;20176;-68
2021/09/13 02:50:36;;;;;;;1999.90;999.90;;;15.50;99.90;;;;;;5035630;28;20240;-68
2021/09/13 02:53:02;;;;;;;1999.90;999.90;;;15.50;99.90;;;;;;5035522;28;20247;-68
2021/09/13 02:55:28;;;;;;;1999.90;999.90;;;15.40;99.90;;;;;;5035219;28;20554;-67
2021/09/13 02:57:53;;;;;;;1999.90;999.90;;;15.40;99.90;;;;;;5035638;28;20685;-68
2021/09/13 03:00:20;;;;;;;1999.90;999.90;;;15.40;99.90;;;;;;5035480;28;20219;-68
2021/09/13 03:02:45;;;;;;;1999.90;999.90;;;15.40;99.90;;;;;;5035568;28;20180;-67
2021/09/13 03:05:11;;;;;;;1999.90;999.90;;;15.40;99.90;;;;;;5035076;28;20416;-68
2021/09/13 03:07:36;;;;;;;1999.90;999.90;;;15.30;99.90;;;;;;5035330;28;20226;-68
2021/09/13 03:10:04;;;;;;;1999.90;999.90;;;15.40;99.90;;;;;;5031513;28;20521;-68
2021/09/13 03:12:33;;;;;;;1999.90;999.90;;;15.30;99.90;;;;;;5033797;28;20276;-67
2021/09/13 03:15:03;;;;;;;1999.90;999.90;;;15.30;99.90;;;;;;5034328;28;20427;-68
2021/09/13 03:17:29;;;;;;;1999.90;999.90;;;15.30;99.90;;;;;;5033849;28;20450;-68
2021/09/13 03:19:54;;;;;;;1999.90;999.90;;;15.30;99.90;;;;;;5034021;28;20460;-68
2021/09/13 03:22:20;;;;;;;1999.90;999.90;;;15.30;99.90;;;;;;5033588;28;20175;-68
2021/09/13 03:24:46;;;;;;;1999.90;999.90;;;15.30;99.90;;;;;;5033005;28;20299;-68
2021/09/13 03:27:11;;;;;;;1999.90;999.90;;;15.30;99.90;;;;;;5033876;28;20175;-68
2021/09/13 03:29:37;;;;;;;1999.90;999.90;;;15.30;99.90;;;;;;5033533;28;20177;-68
2021/09/13 03:32:03;;;;;;;1999.90;999.90;;;15.40;99.90;;;;;;5033060;28;20199;-68
2021/09/13 03:34:29;;;;;;;1999.90;999.90;;;15.30;99.90;;;;;;5033518;28;20692;-67
2021/09/13 03:36:57;;;;;;;1999.90;999.90;;;15.30;99.90;;;;;;5033854;28;20391;-67
2021/09/13 03:39:22;;;;;;;1999.90;999.90;;;15.40;99.90;;;;;;5032509;28;20934;-67
2021/09/13 03:41:48;;;;;;;1999.90;999.90;;;15.30;99.90;;;;;;5033900;28;20402;-67
2021/09/13 03:44:14;;;;;;;1999.90;999.90;;;15.30;99.90;;;;;;5033478;28;20711;-68
2021/09/13 03:46:39;;;;;;;1999.90;999.90;;;15.30;99.90;;;;;;5033008;28;20178;-69
2021/09/13 03:49:05;;;;;;;1999.90;999.90;;;15.30;99.90;;;;;;5033269;28;20172;-69
2021/09/13 03:51:30;;;;;;;1999.90;999.90;;;15.30;99.90;;;;;;5032855;28;20242;-68
2021/09/13 03:53:56;;;;;;;1999.90;999.90;;;15.20;99.90;;;;;;5032477;28;20202;-68
2021/09/13 03:56:21;;;;;;;1999.90;999.90;;;15.10;99.90;;;;;;5033083;28;20188;-68
2021/09/13 03:58:47;;;;;;;1999.90;999.90;;;15.10;99.90;;;;;;5032966;28;20639;-68
2021/09/13 04:01:12;;;;;;;1999.90;999.90;;;15.00;99.90;;;;;;5032718;28;20164;-68
2021/09/13 04:03:48;;;;;;;1999.90;999.90;;;15.00;99.90;;;;;;5033212;28;20625;-68
2021/09/13 04:06:22;;;;;;;1999.90;999.90;;;14.90;99.90;;;;;;5033046;28;20173;-65
2021/09/13 04:11:25;;;;;;;1999.90;999.90;;;14.80;99.90;;;;;;5033134;28;20448;-69
2021/09/13 04:13:51;;;;;;;1999.90;999.90;;;14.80;99.90;;;;;;5033075;28;20791;-69
2021/09/13 04:16:17;;;;;;;1999.90;999.90;;;14.80;99.90;;;;;;5032180;28;20410;-69
2021/09/13 04:18:42;;;;;;;1999.90;999.90;;;14.80;99.90;;;;;;5032886;28;20161;-68
2021/09/13 04:21:08;;;;;;;1999.90;999.90;;;14.70;99.90;;;;;;5032737;28;20192;-69
2021/09/13 04:23:34;;;;;;;1999.90;999.90;;;14.70;99.90;;;;;;5032218;28;20835;-69
2021/09/13 04:25:59;;;;;;;1999.90;999.90;;;14.60;99.90;;;;;;5032597;28;20196;-68
2021/09/13 04:28:25;;;;;;;1999.90;999.90;;;14.50;99.90;;;;;;5032768;28;20204;-68
2021/09/13 04:30:51;;;;;;;1999.90;999.90;;;14.60;99.90;;;;;;5032513;28;20542;-69
2021/09/13 04:33:16;;;;;;;1999.90;999.90;;;14.60;99.90;;;;;;5033029;28;20196;-67
2021/09/13 04:35:42;;;;;;;1999.90;999.90;;;14.60;99.90;;;;;;5032720;28;20167;-68
2021/09/13 04:38:08;;;;;;;1999.90;999.90;;;14.50;99.90;;;;;;5032555;28;20165;-68
2021/09/13 04:40:34;;;;;;;1999.90;999.90;;;14.50;99.90;;;;;;5032765;28;20167;-68
2021/09/13 04:42:59;;;;;;;1999.90;999.90;;;14.50;99.90;;;;;;5032814;28;20410;-67
2021/09/13 04:45:25;;;;;;;1999.90;999.90;;;14.50;99.90;;;;;;5032345;28;20194;-68
2021/09/13 04:47:51;;;;;;;1999.90;999.90;;;14.40;99.90;;;;;;5032735;28;20165;-68
2021/09/13 04:50:16;;;;;;;1999.90;999.90;;;14.40;99.90;;;;;;5032307;28;20174;-67
2021/09/13 04:52:42;;;;;;;1999.90;999.90;;;14.40;99.90;;;;;;5031969;28;20203;-69
2021/09/13 04:55:08;;;;;;;1999.90;999.90;;;14.40;99.90;;;;;;5031575;28;20197;-69
2021/09/13 04:57:34;;;;;;;1999.90;999.90;;;14.40;99.90;;;;;;5032131;28;20967;-69
2021/09/13 04:59:59;;;;;;;1999.90;999.90;;;14.40;99.90;;;;;;5031646;28;20483;-69
2021/09/13 05:02:25;;;;;;;1999.90;999.90;;;14.30;99.90;;;;;;5031430;28;20661;-68
2021/09/13 05:04:51;;;;;;;1999.90;999.90;;;14.30;99.90;;;;;;5031477;28;21055;-68
2021/09/13 05:07:16;;;;;;;1999.90;999.90;;;14.30;99.90;;;;;;5031910;28;20219;-69
2021/09/13 05:09:42;;;;;;;1999.90;999.90;;;14.20;99.90;;;;;;5031190;28;20580;-68
2021/09/13 05:12:08;;;;;;;1999.90;999.90;;;14.30;99.90;;;;;;5031600;28;20607;-69
2021/09/13 05:14:33;;;;;;;1999.90;999.90;;;14.30;99.90;;;;;;5031343;28;20190;-68
2021/09/13 05:16:59;;;;;;;1999.90;999.90;;;14.40;99.90;;;;;;5031158;28;20576;-69
2021/09/13 05:19:25;;;;;;;1999.90;999.90;;;14.30;99.90;;;;;;5031469;28;20246;-68
2021/09/13 05:21:50;;;;;;;1999.90;999.90;;;14.30;99.90;;;;;;5031372;28;20175;-68
2021/09/13 05:24:16;;;;;;;1999.90;999.90;;;14.30;99.90;;;;;;5030634;28;20684;-68
2021/09/13 05:26:43;;;;;;;1999.90;999.90;;;14.30;99.90;;;;;;5031681;28;20183;-68
2021/09/13 05:29:08;;;;;;;1999.90;999.90;;;14.40;99.90;;;;;;5031331;28;20178;-68
2021/09/13 05:31:34;;;;;;;1999.90;999.90;;;14.40;99.90;;;;;;5030669;28;20453;-69
2021/09/13 05:33:59;;;;;;;1999.90;999.90;;;14.40;99.90;;;;;;5031397;28;20268;-69
2021/09/13 05:36:25;;;;;;;1999.90;999.90;;;14.30;99.90;;;;;;5031510;28;20193;-69
2021/09/13 05:38:51;;;;;;;1999.90;999.90;;;14.30;99.90;;;;;;5030860;28;20562;-69
2021/09/13 05:41:17;;;;;;;1999.90;999.90;;;14.40;99.90;;;;;;5031057;28;20182;-68
2021/09/13 05:43:43;;;;;;;1999.90;999.90;;;14.40;99.90;;;;;;5030998;28;20196;-69
2021/09/13 05:46:08;;;;;;;1999.90;999.90;;;14.50;99.90;;;;;;5030484;28;20416;-68
2021/09/13 05:48:34;;;;;;;1999.90;999.90;;;14.60;99.90;;;;;;5030899;28;20400;-69
2021/09/13 05:50:59;;;;;;;1999.90;999.90;;;14.70;99.90;;;;;;5030894;28;20187;-68
2021/09/13 05:53:25;;;;;;;1999.90;999.90;;;14.70;99.90;;;;;;5030320;28;20171;-69
2021/09/13 05:55:50;;;;;;;1999.90;999.90;;;14.70;99.90;;;;;;5013189;28;20199;-69
2021/09/13 05:58:16;;;;;;;1999.90;999.90;;;14.80;99.90;;;;;;5030273;28;20166;-68
2021/09/13 06:00:43;;;;;;;1999.90;999.90;;;14.80;99.90;;;;;;5029518;28;20197;-68
2021/09/13 06:03:08;;;;;;;1999.90;999.90;;;14.80;99.90;;;;;;5030504;28;20250;-67
2021/09/13 06:05:35;;;;;;;1999.90;999.90;;;14.90;99.90;;;;;;5031139;28;20493;-68
2021/09/13 06:08:01;;;;;;;1999.90;999.90;;;14.90;99.90;;;;;;5030133;28;20668;-69
2021/09/13 06:10:26;;;;;;;1999.90;999.90;;;15.00;99.90;;;;;;5030479;28;20494;-69
2021/09/13 06:12:52;;;;;;;1999.90;999.90;;;15.00;99.90;;;;;;5031052;28;20200;-69
2021/09/13 06:15:18;;;;;;;1999.90;999.90;;;15.00;99.90;;;;;;5030286;28;20398;-69
2021/09/13 06:17:44;;;;;;;1999.90;999.90;;;15.00;99.90;;;;;;5030854;28;20252;-69
2021/09/13 06:20:10;;;;;;;1999.90;999.90;;;15.10;99.90;;;;;;5030171;28;20164;-69
2021/09/13 06:22:36;;;;;;;1999.90;999.90;;;15.10;99.90;;;;;;5030219;28;20420;-69
2021/09/13 06:25:02;;;;;;;1999.90;999.90;;;15.20;99.90;;;;;;5029871;28;20448;-68
2021/09/13 06:27:28;;;;;;;1999.90;999.90;;;15.30;99.90;;;;;;5030465;28;20174;-69
2021/09/13 06:29:54;;;;;;;1999.90;999.90;;;15.30;99.90;;;;;;5030208;28;20998;-68
2021/09/13 06:32:19;;;;;;;1999.90;999.90;;;15.30;99.90;;;;;;5030446;28;20578;-69
2021/09/13 06:34:45;;;;;;;1999.90;999.90;;;15.30;99.90;;;;;;5030648;28;20193;-69
2021/09/13 06:37:10;;;;;;;1999.90;999.90;;;15.40;99.90;;;;;;5030525;28;20172;-68
2021/09/13 06:39:37;;;;;;;1999.90;999.90;;;15.40;99.90;;;;;;5030747;28;20163;-68
2021/09/13 06:42:03;;;;;;;1999.90;999.90;;;15.40;99.90;;;;;;5030621;28;20191;-69
2021/09/13 06:44:29;;;;;;;1999.90;999.90;;;15.50;99.90;;;;;;5029532;28;20789;-68
2021/09/13 06:47:03;;;;;;;1999.90;999.90;;;15.60;99.90;;;;;;5030564;28;20410;-69
2021/09/13 06:49:29;;;;;;;1999.90;999.90;;;15.70;99.90;;;;;;5030851;28;20436;-67
2021/09/13 06:51:55;;;;;;;1999.90;999.90;;;15.70;99.90;;;;;;5030255;28;20458;-67
2021/09/13 06:54:21;;;;;;;1999.90;999.90;;;15.80;99.90;;;;;;5030472;28;20424;-67
2021/09/13 06:56:46;;;;;;;1999.90;999.90;;;15.90;99.90;;;;;;5030376;28;20175;-69
2021/09/13 06:59:13;;;;;;;1999.90;999.90;;;16.10;99.90;;;;;;5030142;28;20550;-69
2021/09/13 07:01:39;;;;;;;1999.90;999.90;;;16.20;99.90;;;;;;5030115;28;20642;-69
2021/09/13 07:04:05;;;;;;;1999.90;999.90;;;16.20;99.90;;;;;;5030094;28;20468;-67
2021/09/13 07:06:31;;;;;;;1999.90;999.90;;;16.30;99.90;;;;;;5030054;28;20440;-68
2021/09/13 07:08:57;;;;;;;1999.90;999.90;;;16.40;99.90;;;;;;5030693;28;20951;-68
2021/09/13 07:11:24;;;;;;;1999.90;999.90;;;16.50;99.90;;;;;;5029910;28;20715;-69
2021/09/13 07:13:49;;;;;;;1999.90;999.90;;;16.50;99.90;;;;;;5030325;28;20775;-69
2021/09/13 07:16:15;;;;;;;1999.90;999.90;;;16.50;99.90;;;;;;5033985;28;20406;-69
2021/09/13 07:18:41;;;;;;;1999.90;999.90;;;16.60;99.90;;;;;;5033863;28;20176;-69
2021/09/13 07:21:07;;;;;;;1999.90;999.90;;;16.60;99.90;;;;;;5033295;28;20178;-68
2021/09/13 07:23:32;;;;;;;1999.90;999.90;;;16.70;99.90;;;;;;5033759;28;20215;-69
2021/09/13 07:25:58;;;;;;;1999.90;999.90;;;16.70;99.90;;;;;;5033444;28;20441;-69
2021/09/13 07:28:23;;;;;;;1999.90;999.90;;;16.80;99.90;;;;;;5033312;28;20267;-67
2021/09/13 07:30:49;;;;;;;1999.90;999.90;;;16.90;99.90;;;;;;5033607;28;20657;-69
2021/09/13 07:33:15;;;;;;;1999.90;999.90;;;16.90;99.90;;;;;;5033808;28;20176;-67
2021/09/13 07:35:40;;;;;;;1999.90;999.90;;;17.00;99.90;;;;;;5033208;28;20642;-69
2021/09/13 07:38:06;;;;;;;1999.90;999.90;;;17.10;99.90;;;;;;5033540;28;20626;-68
2021/09/13 07:40:31;;;;;;;1999.90;999.90;;;17.20;99.90;;;;;;5033313;28;20182;-68
2021/09/13 07:42:57;;;;;;;1999.90;999.90;;;17.30;99.90;;;;;;5033079;28;20175;-69
2021/09/13 07:45:24;;;;;;;1999.90;999.90;;;17.30;99.90;;;;;;5033167;28;20561;-68
2021/09/13 07:47:51;;;;;;;1999.90;999.90;;;17.30;99.90;;;;;;5033313;28;20514;-68
2021/09/13 07:50:17;;;;;;;1999.90;999.90;;;17.40;99.90;;;;;;5032741;28;20911;-69
2021/09/13 07:52:43;;;;;;;1999.90;999.90;;;17.50;99.90;;;;;;5033063;28;20550;-68
2021/09/13 07:55:10;;;;;;;1999.90;999.90;;;17.50;99.90;;;;;;5033285;28;21032;-67
2021/09/13 07:57:36;;;;;;;1999.90;999.90;;;17.50;99.90;;;;;;5031450;28;20667;-69
2021/09/13 08:00:04;;;;;;;1999.90;999.90;;;17.70;99.90;;;;;;5032034;28;20891;-71
2021/09/13 08:02:31;;;;;;;1999.90;999.90;;;17.80;99.90;;;;;;5031721;28;20465;-70
2021/09/13 08:04:59;;;;;;;1999.90;999.90;;;17.90;99.90;;;;;;5034263;28;20539;-71
2021/09/13 08:07:25;;;;;;;1999.90;999.90;;;18.00;99.90;;;;;;5032745;28;20980;-71
2021/09/13 08:09:50;;;;;;;1999.90;999.90;;;18.20;99.90;;;;;;5034216;28;20535;-69
2021/09/13 08:12:16;;;;;;;1999.90;999.90;;;18.20;99.90;;;;;;5032214;28;20195;-71
2021/09/13 08:14:41;;;;;;;1999.90;999.90;;;18.20;99.90;;;;;;5031166;28;20197;-68
2021/09/13 08:17:07;;;;;;;1999.90;999.90;;;18.30;99.90;;;;;;5033365;28;20172;-68
2021/09/13 08:19:33;;;;;;;1999.90;999.90;;;18.40;99.90;;;;;;5034889;28;20185;-69
2021/09/13 08:21:58;;;;;;;1999.90;999.90;;;18.40;99.90;;;;;;5033834;28;20305;-68
2021/09/13 08:24:24;;;;;;;1999.90;999.90;;;18.40;99.90;;;;;;5032817;28;20690;-69
2021/09/13 08:26:50;;;;;;;1999.90;999.90;;;18.40;99.90;;;;;;5033783;28;20234;-68
2021/09/13 08:29:17;;;;;;;1999.90;999.90;;;18.60;99.90;;;;;;5034668;28;20179;-69
2021/09/13 08:31:43;;;;;;;1999.90;999.90;;;18.70;99.90;;;;;;5032840;28;20208;-68
2021/09/13 08:34:09;;;;;;;1999.90;999.90;;;18.80;99.90;;;;;;5031718;28;20442;-69
2021/09/13 08:36:34;;;;;;;1999.90;999.90;;;18.90;99.90;;;;;;5032140;28;20667;-68
2021/09/13 08:39:00;;;;;;;1999.90;999.90;;;19.00;99.90;;;;;;5032867;28;20171;-69
2021/09/13 08:41:25;;;;;;;1999.90;999.90;;;19.10;99.90;;;;;;5034884;28;21004;-69
2021/09/13 08:43:52;;;;;;;1999.90;999.90;;;19.20;99.90;;;;;;5033194;28;20194;-68
2021/09/13 08:46:24;;;;;;;1999.90;999.90;;;19.20;99.90;;;;;;5031891;28;20546;-72
2021/09/13 08:48:55;;;;;;;1999.90;999.90;;;19.30;99.90;;;;;;5032065;28;20402;-69
2021/09/13 08:51:31;;;;;;;1999.90;999.90;;;19.40;99.90;;;;;;5032669;28;20456;-71
2021/09/13 08:54:06;;;;;;;1999.90;999.90;;;19.50;99.90;;;;;;5032975;28;20420;-71
2021/09/13 08:56:40;;;;;;;1999.90;999.90;;;19.50;99.90;;;;;;5031705;28;20411;-68
2021/09/13 08:59:11;;;;;;;1999.90;999.90;;;19.50;99.90;;;;;;5029857;28;20910;-69
2021/09/13 09:01:37;;;;;;;1999.90;999.90;;;19.60;99.90;;;;;;5029707;28;20498;-67
2021/09/13 09:04:03;;;;;;;1999.90;999.90;;;19.70;99.90;;;;;;5030608;28;21209;-67
2021/09/13 09:06:37;;;;;;;1999.90;999.90;;;19.70;99.90;;;;;;5025982;28;20421;-67
2021/09/13 09:09:08;;;;;;;1999.90;999.90;;;19.90;99.90;;;;;;5031364;28;20436;-67
2021/09/13 09:11:54;;;;;;;1999.90;999.90;;;20.10;99.90;;;;;;5031212;28;20447;-67
2021/09/13 09:14:44;;;;;;;1999.90;999.90;;;20.30;99.90;;;;;;5017220;28;20523;-67
2021/09/13 09:17:19;;;;;;;1999.90;999.90;;;20.40;99.90;;;;;;5025910;28;20939;-67
2021/09/13 09:19:44;;;;;;;1999.90;999.90;;;20.50;99.90;;;;;;5030650;28;20411;-67
2021/09/13 09:22:23;;;;;;;1999.90;999.90;;;20.60;99.90;;;;;;5031000;28;20383;-66
2021/09/13 09:24:50;;;;;;;1999.90;999.90;;;20.70;99.90;;;;;;5030210;28;20222;-67
2021/09/13 09:27:16;;;;;;;1999.90;999.90;;;20.80;99.90;;;;;;5030816;28;20465;-66
2021/09/13 09:29:42;;;;;;;1999.90;999.90;;;20.80;99.90;;;;;;5031127;28;21109;-66
2021/09/13 09:32:07;;;;;;;1999.90;999.90;;;21.00;99.90;;;;;;5030717;28;20464;-67
2021/09/13 09:34:35;;;;;;;1999.90;999.90;;;21.10;99.90;;;;;;5032412;28;20437;-67
2021/09/13 09:37:09;;;;;;;1999.90;999.90;;;21.40;99.90;;;;;;5032805;28;20204;-68
2021/09/13 09:39:53;;;;;;;1999.90;999.90;;;21.50;99.90;;;;;;5033380;28;20393;-67
2021/09/13 09:42:33;;;;;;;1999.90;999.90;;;21.60;99.90;;;;;;5033716;28;20415;-67
2021/09/13 09:45:01;;;;;;;1999.90;999.90;;;21.70;99.90;;;;;;5035857;28;20435;-68
2021/09/13 09:47:27;;;;;;;1999.90;999.90;;;21.80;99.90;;;;;;5032020;28;21078;-65
2021/09/13 09:49:55;;;;;;;1999.90;999.90;;;22.00;99.90;;;;;;5030151;28;20406;-66
2021/09/13 09:52:30;;;;;;;1999.90;999.90;;;22.10;99.90;;;;;;5033071;28;20464;-70
2021/09/13 09:55:27;;;;;;;1999.90;999.90;;;22.10;99.90;;;;;;5033229;28;20432;-65
2021/09/13 09:58:10;;;;;;;1999.90;999.90;;;22.10;99.90;;;;;;5024619;28;20450;-69
2021/09/13 10:00:37;;;;;;;1999.90;999.90;;;22.30;99.90;;;;;;5034084;28;20420;-68
2021/09/13 10:03:04;;;;;;;1999.90;999.90;;;22.30;99.90;;;;;;5030654;28;20923;-67
2021/09/13 10:05:31;;;;;;;1999.90;999.90;;;22.40;99.90;;;;;;5029185;28;20482;-68
2021/09/13 10:07:57;;;;;;;1999.90;999.90;;;22.40;99.90;;;;;;5030327;28;20408;-68
2021/09/13 10:10:29;;;;;;;1999.90;999.90;;;22.50;99.90;;;;;;5030703;28;20785;-64
2021/09/13 10:12:59;;;;;;;1999.90;999.90;;;22.60;99.90;;;;;;5030144;28;20443;-68
2021/09/13 10:15:25;;;;;;;1999.90;999.90;;;22.80;99.90;;;;;;5029986;28;20448;-66
2021/09/13 10:17:51;;;;;;;1999.90;999.90;;;23.00;99.90;;;;;;5029989;28;20404;-67
2021/09/13 10:20:17;;;;;;;1999.90;999.90;;;23.10;99.90;;;;;;5029515;28;20987;-67
2021/09/13 10:22:46;;;;;;;1999.90;999.90;;;23.10;99.90;;;;;;5030362;28;20658;-67
2021/09/13 10:25:13;;;;;;;1999.90;999.90;;;23.10;99.90;;;;;;5029458;28;20549;-66
2021/09/13 10:27:41;;;;;;;1999.90;999.90;;;23.20;99.90;;;;;;5029347;28;20416;-66
2021/09/13 10:30:52;;;;;;;1999.90;999.90;;;23.10;99.90;;;;;;5030406;28;20409;-68
2021/09/13 10:33:18;;;;;;;1999.90;999.90;;;23.20;99.90;;;;;;5032450;28;20475;-66
2021/09/13 10:35:56;;;;;;;1999.90;999.90;;;23.40;99.90;;;;;;5029467;28;20414;-65
2021/09/13 10:38:45;;;;;;;1999.90;999.90;;;23.50;99.90;;;;;;5030161;28;20203;-65
2021/09/13 10:41:31;;;;;;;1999.90;999.90;;;23.40;99.90;;;;;;5029442;28;20474;-66
2021/09/13 10:44:05;;;;;;;1999.90;999.90;;;23.50;99.90;;;;;;5029151;28;20433;-65
2021/09/13 10:46:59;;;;;;;1999.90;999.90;;;23.50;99.90;;;;;;5029946;28;20430;-65
2021/09/13 10:49:25;;;;;;;1999.90;999.90;;;23.70;99.90;;;;;;5031911;28;20365;-65
2021/09/13 10:52:28;;;;;;;1999.90;999.90;;;23.80;99.90;;;;;;5034495;28;20447;-66
2021/09/13 10:55:09;;;;;;;1999.90;999.90;;;24.00;99.90;;;;;;5035806;28;20195;-66
2021/09/13 10:58:09;;;;;;;1999.90;999.90;;;24.20;99.90;;;;;;5036074;28;20521;-66
2021/09/13 11:00:41;;;;;;;1999.90;999.90;;;24.40;99.90;;;;;;5033721;28;20378;-67
2021/09/13 11:06:12;;;;;;;1999.90;999.90;;;24.50;99.90;;;;;;5033183;28;20411;-66
2021/09/13 11:08:52;;;;;;;1999.90;999.90;;;24.60;99.90;;;;;;5034164;28;20857;-65
2021/09/13 11:11:24;;;;;;;1999.90;999.90;;;24.80;99.90;;;;;;5032991;28;20476;-65
2021/09/13 11:14:07;;;;;;;1999.90;999.90;;;25.00;99.90;;;;;;5032682;28;20426;-65
2021/09/13 11:16:38;;;;;;;1999.90;999.90;;;25.10;99.90;;;;;;5033256;28;20896;-65
2021/09/13 11:19:09;;;;;;;1999.90;999.90;;;25.20;99.90;;;;;;5034255;28;20432;-65
2021/09/13 11:21:59;;;;;;;1999.90;999.90;;;25.40;99.90;;;;;;5033447;28;20410;-66
2021/09/13 11:24:29;;;;;;;1999.90;999.90;;;25.50;99.90;;;;;;5026708;28;20528;-67
2021/09/13 11:27:02;;;;;;;1999.90;999.90;;;25.80;99.90;;;;;;5034899;28;20704;-66
2021/09/13 11:29:33;;;;;;;1999.90;999.90;;;26.00;99.90;;;;;;5035363;28;20425;-67
2021/09/13 11:32:08;;;;;;;1999.90;999.90;;;26.20;99.90;;;;;;5033921;28;20500;-67
2021/09/13 11:34:51;;;;;;;1999.90;999.90;;;26.40;99.90;;;;;;5034572;28;20404;-66
2021/09/13 11:37:32;;;;;;;1999.90;999.90;;;26.60;99.90;;;;;;5032662;28;20418;-65
2021/09/13 11:40:03;;;;;;;1999.90;999.90;;;26.80;99.90;;;;;;5032454;28;20384;-65
2021/09/13 11:42:31;;;;;;;1999.90;999.90;;;27.20;99.90;;;;;;5035407;28;20889;-65
2021/09/13 11:44:58;;;;;;;1999.90;999.90;;;27.60;99.90;;;;;;5032238;28;20461;-65
2021/09/13 11:47:25;;;;;;;1999.90;999.90;;;28.20;99.90;;;;;;5034935;28;20392;-67
2021/09/13 11:49:53;;;;;;;1999.90;999.90;;;28.90;99.90;;;;;;5036190;28;20407;-67
2021/09/13 11:52:29;;;;;;;1999.90;999.90;;;29.70;99.90;;;;;;5035950;28;20477;-67
2021/09/13 11:55:07;;;;;;;1999.90;999.90;;;30.30;99.90;;;;;;5032461;28;20427;-67
2021/09/13 11:57:47;;;;;;;1999.90;999.90;;;30.70;99.90;;;;;;5032483;28;20418;-67
2021/09/13 12:00:35;;;;;;;1999.90;999.90;;;31.10;99.90;;;;;;5033743;28;20406;-67
2021/09/13 12:03:06;;;;;;;1999.90;999.90;;;31.30;99.90;;;;;;5032746;28;20387;-66
2021/09/13 12:05:33;;;;;;;1999.90;999.90;;;31.20;99.90;;;;;;5032398;28;20426;-64
2021/09/13 12:08:00;;;;;;;1999.90;999.90;;;31.50;99.60;;;;;;5032792;28;20402;-65